createdAt,value
2022-10-21T00:00:25.224Z,4.88
2022-10-21T00:02:59.824Z,5.07
2022-10-21T00:05:30.785Z,6.15
2022-10-21T00:08:06.068Z,5.50
2022-10-21T00:13:06.946Z,6.72
2022-10-21T00:15:42.170Z,4.80
2022-10-21T00:18:14.976Z,5.80
2022-10-21T00:20:58.667Z,5.90
2022-10-21T00:23:44.660Z,6.45
2022-10-21T00:26:26.006Z,6.68
2022-10-21T00:29:05.237Z,5.47
2022-10-21T00:34:17.425Z,5.53
2022-10-21T00:36:48.320Z,4.72
2022-10-21T00:39:16.206Z,5.53
2022-10-21T00:41:45.057Z,5.80
2022-10-21T00:47:14.889Z,5.05
2022-10-21T00:50:03.312Z,5.47
2022-10-21T00:52:40.686Z,6.25
2022-10-21T00:55:13.130Z,4.93
2022-10-21T00:57:45.556Z,4.97
2022-10-21T01:00:22.000Z,5.82
2022-10-21T01:03:12.107Z,6.65
2022-10-21T01:05:48.058Z,5.35
2022-10-21T01:08:19.436Z,5.78
2022-10-21T01:10:57.279Z,5.55
2022-10-21T01:13:51.438Z,5.88
2022-10-21T01:16:32.455Z,5.80
2022-10-21T01:19:24.283Z,5.78
2022-10-21T01:22:26.813Z,6.55
2022-10-21T01:24:54.561Z,5.28
2022-10-21T01:27:56.314Z,5.80
2022-10-21T01:30:47.079Z,6.18
2022-10-21T01:33:38.457Z,5.10
2022-10-21T01:36:21.634Z,6.63
2022-10-21T01:39:13.183Z,6.68
2022-10-21T01:42:14.722Z,6.25
2022-10-21T01:45:02.995Z,6.55
2022-10-21T01:48:03.694Z,6.18
2022-10-21T01:50:42.207Z,5.65
2022-10-21T01:53:28.518Z,5.93
2022-10-21T01:56:05.001Z,6.28
2022-10-21T01:58:48.839Z,6.90
2022-10-21T02:01:19.315Z,5.90
2022-10-21T02:03:56.426Z,6.50
2022-10-21T02:06:29.203Z,6.78
2022-10-21T02:09:01.512Z,6.57
2022-10-21T02:11:55.127Z,6.60
2022-10-21T02:14:47.850Z,7.65
2022-10-21T02:17:26.773Z,6.20
2022-10-21T02:20:34.051Z,6.90
2022-10-21T02:23:09.488Z,7.05
2022-10-21T02:25:42.747Z,6.53
2022-10-21T02:28:20.922Z,6.30
2022-10-21T02:31:10.965Z,6.78
2022-10-21T02:34:00.709Z,5.65
2022-10-21T02:36:52.427Z,6.93
2022-10-21T02:39:40.313Z,6.55
2022-10-21T02:42:24.388Z,6.97
2022-10-21T02:44:53.348Z,7.05
2022-10-21T02:47:29.131Z,6.07
2022-10-21T02:50:04.081Z,7.65
2022-10-21T02:55:07.545Z,6.35
2022-10-21T02:57:38.048Z,6.50
2022-10-21T03:00:07.128Z,6.50
2022-10-21T03:02:40.421Z,7.00
2022-10-21T03:05:15.510Z,6.57
2022-10-21T03:07:43.776Z,7.13
2022-10-21T03:10:14.814Z,7.15
2022-10-21T03:12:49.589Z,7.70
2022-10-21T03:15:19.038Z,6.85
2022-10-21T03:17:47.587Z,6.85
2022-10-21T03:20:15.809Z,7.15
2022-10-21T03:22:45.829Z,6.95
2022-10-21T03:25:14.060Z,7.00
2022-10-21T03:27:45.218Z,7.57
2022-10-21T03:30:13.312Z,7.45
2022-10-21T03:32:42.460Z,7.43
2022-10-21T03:35:16.774Z,7.30
2022-10-21T03:37:47.083Z,7.32
2022-10-21T03:40:17.273Z,6.40
2022-10-21T03:42:45.112Z,7.53
2022-10-21T03:45:14.434Z,7.47
2022-10-21T03:47:41.950Z,8.35
2022-10-21T03:50:13.921Z,7.22
2022-10-21T03:52:44.425Z,7.38
2022-10-21T03:55:16.395Z,6.70
2022-10-21T03:57:46.996Z,6.63
2022-10-21T04:00:15.136Z,6.50
2022-10-21T04:02:45.602Z,6.53
2022-10-21T04:05:13.479Z,7.60
2022-10-21T04:07:41.848Z,7.22
2022-10-21T04:10:10.340Z,7.97
2022-10-21T04:12:43.194Z,7.05
2022-10-21T04:15:13.767Z,6.40
2022-10-21T04:17:42.026Z,6.65
2022-10-21T04:20:10.866Z,6.70
2022-10-21T04:22:39.123Z,7.30
2022-10-21T04:25:07.289Z,7.20
2022-10-21T04:27:35.021Z,6.97
2022-10-21T04:30:04.124Z,7.65
2022-10-21T04:32:31.828Z,7.30
2022-10-21T04:35:01.669Z,7.28
2022-10-21T04:37:29.153Z,7.65
2022-10-21T04:39:57.578Z,7.07
2022-10-21T04:42:25.392Z,6.65
2022-10-21T04:44:55.224Z,7.55
2022-10-21T04:47:22.717Z,7.00
2022-10-21T04:49:52.426Z,8.20
2022-10-21T04:52:21.112Z,7.45
2022-10-21T04:54:48.895Z,7.00
2022-10-21T04:57:16.236Z,7.45
2022-10-21T04:59:43.764Z,7.55
2022-10-21T05:02:13.475Z,8.10
2022-10-21T05:04:41.013Z,6.95
2022-10-21T05:07:09.098Z,7.90
2022-10-21T05:09:36.172Z,7.90
2022-10-21T05:12:03.305Z,7.47
2022-10-21T05:14:31.316Z,7.47
2022-10-21T05:16:58.203Z,7.35
2022-10-21T05:19:28.994Z,8.27
2022-10-21T05:21:59.631Z,7.72
2022-10-21T05:24:38.222Z,6.55
2022-10-21T05:27:05.762Z,7.50
2022-10-21T05:29:33.541Z,7.78
2022-10-21T05:32:01.029Z,7.95
2022-10-21T05:34:28.475Z,7.57
2022-10-21T05:36:58.328Z,9.15
2022-10-21T05:39:27.945Z,7.38
2022-10-21T05:41:58.281Z,7.95
2022-10-21T05:44:35.272Z,7.68
2022-10-21T05:47:03.081Z,7.57
2022-10-21T05:49:31.478Z,7.35
2022-10-21T05:51:59.091Z,7.72
2022-10-21T05:54:29.311Z,7.40
2022-10-21T05:56:57.561Z,7.07
2022-10-21T05:59:26.871Z,8.00
2022-10-21T06:01:54.457Z,8.68
2022-10-21T06:04:22.301Z,7.32
2022-10-21T06:06:50.572Z,8.77
2022-10-21T06:09:18.263Z,8.38
2022-10-21T06:11:49.493Z,7.47
2022-10-21T06:14:17.290Z,8.90
2022-10-21T06:16:49.468Z,8.27
2022-10-21T06:19:17.122Z,8.25
2022-10-21T06:21:44.561Z,7.60
2022-10-21T06:24:13.033Z,7.93
2022-10-21T06:26:40.580Z,8.80
2022-10-21T06:29:09.968Z,8.13
2022-10-21T06:31:37.733Z,8.18
2022-10-21T06:34:05.600Z,7.47
2022-10-21T06:36:38.328Z,7.95
2022-10-21T06:39:06.606Z,8.57
2022-10-21T06:41:34.015Z,8.25
2022-10-21T06:44:01.659Z,8.18
2022-10-21T06:46:29.208Z,9.05
2022-10-21T06:48:56.898Z,7.82
2022-10-21T06:51:25.180Z,7.70
2022-10-21T06:53:54.754Z,8.57
2022-10-21T06:56:22.892Z,8.27
2022-10-21T06:58:50.854Z,8.48
2022-10-21T07:01:34.910Z,8.48
2022-10-21T07:04:09.539Z,8.10
2022-10-21T07:06:42.401Z,8.27
2022-10-21T07:09:12.883Z,8.00
2022-10-21T07:11:45.038Z,8.05
2022-10-21T07:14:39.125Z,8.02
2022-10-21T07:17:13.094Z,8.50
2022-10-21T07:19:40.854Z,8.07
2022-10-21T07:23:01.227Z,8.55
2022-10-21T07:28:59.324Z,7.80
2022-10-21T07:32:09.683Z,8.63
2022-10-21T07:34:45.113Z,7.80
2022-10-21T07:37:15.310Z,8.73
2022-10-21T07:39:43.775Z,8.60
2022-10-21T07:42:14.644Z,8.48
2022-10-21T07:44:42.431Z,8.57
2022-10-21T07:52:24.896Z,7.18
2022-10-21T07:54:52.007Z,7.70
2022-10-21T07:57:18.973Z,8.23
2022-10-21T07:59:45.845Z,9.30
2022-10-21T08:02:14.939Z,8.00
2022-10-21T08:04:41.805Z,8.43
2022-10-21T08:07:10.390Z,8.13
2022-10-21T08:09:40.151Z,8.45
2022-10-21T08:12:12.929Z,8.70
2022-10-21T08:14:42.279Z,7.47
2022-10-21T08:17:09.259Z,7.53
2022-10-21T08:19:36.187Z,7.85
2022-10-21T08:22:03.159Z,8.07
2022-10-21T08:24:30.036Z,8.15
2022-10-21T08:26:56.999Z,8.27
2022-10-21T08:29:24.580Z,8.18
2022-10-21T08:31:51.498Z,7.28
2022-10-21T08:34:18.567Z,8.15
2022-10-21T08:36:45.388Z,7.82
2022-10-21T08:39:12.647Z,9.50
2022-10-21T08:42:11.516Z,7.60
2022-10-21T08:44:44.503Z,9.23
2022-10-21T08:47:32.767Z,7.78
2022-10-21T08:50:04.343Z,8.55
2022-10-21T08:52:58.419Z,7.93
2022-10-21T08:55:31.832Z,7.95
2022-10-21T08:58:00.592Z,8.30
2022-10-21T09:00:34.515Z,7.95
2022-10-21T09:03:23.223Z,8.13
2022-10-21T09:06:07.467Z,8.00
2022-10-21T09:09:11.102Z,7.35
2022-10-21T09:11:54.332Z,8.70
2022-10-21T09:14:36.091Z,8.85
2022-10-21T09:17:31.024Z,8.48
2022-10-21T09:20:30.141Z,9.32
2022-10-21T09:23:20.403Z,8.63
2022-10-21T09:25:56.175Z,8.50
2022-10-21T09:28:24.588Z,6.75
2022-10-21T09:30:53.271Z,8.43
2022-10-21T09:33:24.526Z,8.13
2022-10-21T09:35:58.123Z,8.45
2022-10-21T09:38:41.523Z,8.60
2022-10-21T09:43:50.009Z,9.05
2022-10-21T09:46:17.621Z,8.30
2022-10-21T09:49:16.313Z,8.18
2022-10-21T09:51:40.093Z,8.43
2022-10-21T09:54:16.142Z,8.43
2022-10-21T09:56:52.701Z,8.38
2022-10-21T09:59:22.518Z,8.90
2022-10-21T10:04:32.795Z,7.40
2022-10-21T10:07:27.866Z,7.95
2022-10-21T10:09:54.948Z,8.10
2022-10-21T10:12:24.985Z,8.00
2022-10-21T10:17:40.696Z,7.65
2022-10-21T10:20:13.958Z,8.55
2022-10-21T10:22:47.930Z,8.07
2022-10-21T10:25:14.770Z,8.05
2022-10-21T10:28:00.220Z,8.25
2022-10-21T10:30:42.658Z,7.93
2022-10-21T10:33:17.140Z,7.47
2022-10-21T10:35:54.518Z,8.10
2022-10-21T10:38:36.357Z,8.60
2022-10-21T10:41:52.921Z,8.02
2022-10-21T10:44:36.747Z,8.50
2022-10-21T10:47:05.652Z,8.07
2022-10-21T10:49:39.415Z,8.90
2022-10-21T10:52:12.587Z,7.28
2022-10-21T10:54:41.819Z,7.90
2022-10-21T10:57:34.317Z,7.82
2022-10-21T11:00:21.359Z,7.40
2022-10-21T11:03:13.579Z,8.00
2022-10-21T11:05:45.074Z,7.93
2022-10-21T11:08:34.335Z,8.43
2022-10-21T11:11:06.905Z,7.57
2022-10-21T11:13:37.910Z,7.80
2022-10-21T11:16:12.247Z,7.78
2022-10-21T11:19:03.841Z,8.77
2022-10-21T11:22:21.043Z,7.53
2022-10-21T11:25:12.704Z,8.82
2022-10-21T11:28:06.126Z,8.63
2022-10-21T11:30:54.524Z,8.05
2022-10-21T11:33:35.264Z,7.20
2022-10-21T11:36:07.960Z,8.07
2022-10-21T11:38:43.124Z,8.52
2022-10-21T11:41:33.926Z,7.53
2022-10-21T11:44:38.411Z,8.60
2022-10-21T11:47:20.293Z,7.82
2022-10-21T11:50:21.492Z,7.25
2022-10-21T11:53:12.421Z,6.85
2022-10-21T11:55:45.370Z,7.35
2022-10-21T11:58:36.545Z,7.95
2022-10-21T12:01:15.342Z,7.68
2022-10-21T12:04:19.274Z,8.15
2022-10-21T12:07:07.659Z,7.47
2022-10-21T12:09:44.321Z,8.73
2022-10-21T12:12:18.295Z,9.18
2022-10-21T12:14:48.960Z,9.07
2022-10-21T12:17:21.925Z,7.78
2022-10-21T12:20:06.306Z,7.68
2022-10-21T12:22:34.796Z,7.05
2022-10-21T12:25:10.843Z,8.35
2022-10-21T12:27:52.733Z,8.00
2022-10-21T12:30:31.475Z,7.80
2022-10-21T12:33:13.704Z,7.72
2022-10-21T12:38:49.249Z,8.82
2022-10-21T12:41:28.160Z,7.38
2022-10-21T12:44:00.845Z,7.85
2022-10-21T12:46:51.297Z,8.00
2022-10-21T12:49:35.899Z,7.32
2022-10-21T12:54:39.118Z,7.40
2022-10-21T12:57:22.392Z,8.05
2022-10-21T12:59:55.522Z,7.85
2022-10-21T13:02:27.057Z,8.02
2022-10-21T13:04:56.626Z,8.00
2022-10-21T13:07:27.973Z,7.18
2022-10-21T13:09:55.158Z,7.35
2022-10-21T13:12:24.763Z,7.97
2022-10-21T13:14:54.730Z,8.38
2022-10-21T13:17:21.810Z,7.93
2022-10-21T13:19:49.860Z,8.63
2022-10-21T13:22:22.860Z,7.80
2022-10-21T13:24:50.210Z,8.55
2022-10-21T13:27:29.939Z,8.52
2022-10-21T13:29:58.280Z,8.35
2022-10-21T13:32:28.252Z,7.72
2022-10-21T13:35:09.634Z,8.32
2022-10-21T13:37:40.980Z,8.32
2022-10-21T13:40:15.751Z,7.63
2022-10-21T13:43:09.246Z,8.10
2022-10-21T13:45:50.323Z,7.30
2022-10-21T13:48:20.080Z,7.53
2022-10-21T13:50:50.449Z,8.10
2022-10-21T13:53:17.353Z,7.88
2022-10-21T13:56:02.739Z,8.07
2022-10-21T13:58:35.971Z,8.52
2022-10-21T14:01:18.591Z,7.90
2022-10-21T14:06:36.181Z,8.30
2022-10-21T14:09:08.135Z,8.27
2022-10-21T14:11:42.405Z,8.35
2022-10-21T14:14:13.248Z,7.88
2022-10-21T14:16:43.046Z,9.23
2022-10-21T14:19:16.959Z,8.60
2022-10-21T14:21:46.455Z,7.68
2022-10-21T14:24:36.033Z,9.13
2022-10-21T14:27:03.752Z,8.00
2022-10-21T14:29:33.762Z,8.32
2022-10-21T14:32:02.244Z,8.18
2022-10-21T14:34:32.342Z,9.05
2022-10-21T14:37:11.837Z,8.88
2022-10-21T14:39:39.607Z,9.32
2022-10-21T14:42:17.682Z,8.13
2022-10-21T14:44:46.357Z,9.48
2022-10-21T14:47:25.716Z,9.50
2022-10-21T14:49:59.803Z,9.45
2022-10-21T14:52:35.561Z,9.70
2022-10-21T14:55:10.349Z,9.55
2022-10-21T14:57:51.497Z,9.50
2022-10-21T15:00:31.609Z,9.60
2022-10-21T15:03:00.367Z,10.30
2022-10-21T15:05:46.550Z,10.70
2022-10-21T15:08:15.609Z,10.10
2022-10-21T15:10:43.961Z,10.45
2022-10-21T15:13:18.845Z,9.55
2022-10-21T15:15:49.687Z,10.25
2022-10-21T15:18:22.587Z,10.13
2022-10-21T15:20:57.543Z,10.52
2022-10-21T15:23:29.236Z,10.40
2022-10-21T15:26:00.494Z,9.75
2022-10-21T15:28:32.961Z,11.40
2022-10-21T15:31:02.276Z,11.68
2022-10-21T15:33:29.309Z,12.02
2022-10-21T15:36:05.607Z,11.50
2022-10-21T15:38:32.486Z,12.07
2022-10-21T15:40:59.437Z,10.77
2022-10-21T15:43:27.668Z,10.15
2022-10-21T15:45:54.538Z,11.80
2022-10-21T15:48:23.089Z,11.40
2022-10-21T15:50:51.458Z,10.70
2022-10-21T15:53:18.458Z,10.80
2022-10-21T15:55:47.669Z,10.52
2022-10-21T15:58:14.526Z,10.27
2022-10-21T16:00:41.475Z,11.73
2022-10-21T16:03:08.539Z,11.13
2022-10-21T16:05:35.465Z,10.80
2022-10-21T16:08:02.358Z,10.63
2022-10-21T16:10:34.963Z,10.35
2022-10-21T16:13:02.673Z,10.25
2022-10-21T16:15:29.754Z,9.52
2022-10-21T16:17:59.384Z,10.82
2022-10-21T16:20:31.837Z,9.95
2022-10-21T16:23:02.122Z,10.25
2022-10-21T16:25:31.673Z,9.63
2022-10-21T16:27:58.904Z,10.98
2022-10-21T16:30:28.585Z,10.63
2022-10-21T16:32:57.591Z,9.85
2022-10-21T16:35:25.005Z,11.07
2022-10-21T16:37:52.415Z,11.70
2022-10-21T16:40:27.095Z,11.23
2022-10-21T16:42:53.985Z,11.23
2022-10-21T16:45:22.803Z,11.77
2022-10-21T16:47:53.056Z,11.77
2022-10-21T16:50:20.035Z,11.95
2022-10-21T16:52:46.882Z,12.18
2022-10-21T16:55:14.674Z,11.68
2022-10-21T16:57:42.314Z,11.63
2022-10-21T17:00:10.278Z,11.15
2022-10-21T17:02:40.243Z,10.40
2022-10-21T17:05:08.339Z,11.15
2022-10-21T17:07:35.364Z,10.20
2022-10-21T17:10:02.451Z,11.20
2022-10-21T17:12:32.518Z,10.85
2022-10-21T17:15:00.034Z,10.38
2022-10-21T17:17:27.177Z,10.93
2022-10-21T17:19:54.112Z,10.23
2022-10-21T17:22:21.069Z,9.93
2022-10-21T17:24:48.398Z,11.02
2022-10-21T17:27:19.520Z,10.88
2022-10-21T17:29:46.776Z,10.65
2022-10-21T17:32:13.655Z,10.95
2022-10-21T17:34:41.392Z,10.38
2022-10-21T17:37:09.988Z,10.93
2022-10-21T17:39:37.022Z,10.60
2022-10-21T17:42:04.440Z,10.95
2022-10-21T17:44:31.431Z,11.13
2022-10-21T17:46:58.259Z,10.57
2022-10-21T17:49:26.340Z,10.95
2022-10-21T17:51:53.251Z,10.43
2022-10-21T17:54:22.959Z,10.18
2022-10-21T17:56:53.417Z,12.05
2022-10-21T17:59:20.310Z,11.50
2022-10-21T18:01:47.873Z,11.82
2022-10-21T18:04:14.816Z,10.77
2022-10-21T18:06:41.795Z,10.20
2022-10-21T18:09:09.420Z,10.45
2022-10-21T18:11:37.091Z,10.52
2022-10-21T18:14:04.603Z,10.45
2022-10-21T18:16:32.182Z,10.27
2022-10-21T18:19:01.961Z,10.57
2022-10-21T18:21:30.130Z,11.05
2022-10-21T18:23:57.455Z,10.10
2022-10-21T18:26:27.970Z,11.40
2022-10-21T18:28:57.674Z,11.02
2022-10-21T18:31:28.252Z,10.93
2022-10-21T18:33:56.598Z,11.82
2022-10-21T18:36:25.044Z,11.10
2022-10-21T18:38:51.935Z,10.88
2022-10-21T18:41:21.235Z,11.57
2022-10-21T18:43:50.724Z,10.00
2022-10-21T18:46:20.500Z,10.20
2022-10-21T18:48:49.072Z,10.95
2022-10-21T18:51:20.981Z,10.52
2022-10-21T18:53:50.090Z,11.48
2022-10-21T18:56:20.047Z,11.40
2022-10-21T18:58:47.137Z,11.23
2022-10-21T19:01:15.154Z,11.70
2022-10-21T19:03:43.426Z,10.75
2022-10-21T19:06:30.355Z,10.93
2022-10-21T19:09:01.037Z,10.77
2022-10-21T19:11:28.660Z,11.73
2022-10-21T19:13:55.869Z,10.40
2022-10-21T19:16:23.020Z,11.13
2022-10-21T19:18:50.100Z,11.02
2022-10-21T19:21:19.417Z,12.23
2022-10-21T19:23:46.658Z,11.35
2022-10-21T19:26:14.572Z,11.15
2022-10-21T19:28:41.731Z,10.32
2022-10-21T19:31:11.536Z,10.23
2022-10-21T19:33:38.933Z,11.60
2022-10-21T19:36:07.059Z,11.40
2022-10-21T19:38:50.269Z,10.95
2022-10-21T19:41:20.229Z,10.88
2022-10-21T19:43:48.047Z,11.35
2022-10-21T19:46:21.040Z,11.07
2022-10-21T19:48:50.833Z,11.77
2022-10-21T19:51:21.440Z,11.15
2022-10-21T19:53:52.258Z,11.73
2022-10-21T19:56:23.793Z,11.32
2022-10-21T19:58:54.388Z,10.73
2022-10-21T20:01:24.214Z,10.93
2022-10-21T20:03:52.674Z,12.02
2022-10-21T20:06:24.512Z,12.10
2022-10-21T20:08:58.623Z,10.90
2022-10-21T20:11:26.920Z,10.85
2022-10-21T20:13:54.030Z,10.95
2022-10-21T20:16:23.931Z,10.60
2022-10-21T20:21:21.237Z,11.23
2022-10-21T20:23:49.588Z,10.18
2022-10-21T20:26:16.788Z,10.05
2022-10-21T20:28:44.344Z,11.57
2022-10-21T20:31:16.617Z,11.05
2022-10-21T20:33:48.586Z,9.93
2022-10-21T20:36:25.098Z,11.30
2022-10-21T20:38:54.006Z,10.20
2022-10-21T20:41:25.749Z,9.93
2022-10-21T20:43:56.736Z,10.98
2022-10-21T20:46:27.638Z,10.38
2022-10-21T20:48:55.119Z,10.70
2022-10-21T20:51:31.276Z,10.48
2022-10-21T20:54:03.665Z,9.93
2022-10-21T20:56:43.079Z,11.00
2022-10-21T20:59:15.346Z,10.73
2022-10-21T21:01:47.923Z,10.73
2022-10-21T21:04:17.638Z,9.95
2022-10-21T21:06:50.742Z,10.05
2022-10-21T21:09:43.661Z,9.68
2022-10-21T21:12:17.817Z,10.23
2022-10-21T21:14:45.207Z,10.57
2022-10-21T21:17:13.002Z,10.77
2022-10-21T21:19:40.736Z,11.43
2022-10-21T21:22:10.725Z,11.25
2022-10-21T21:24:38.446Z,9.80
2022-10-21T21:27:05.914Z,10.70
2022-10-21T21:29:33.513Z,11.23
2022-10-21T21:32:00.737Z,9.75
2022-10-21T21:34:28.801Z,9.27
2022-10-21T21:36:56.393Z,11.05
2022-10-21T21:39:23.545Z,11.00
2022-10-21T21:41:51.465Z,10.38
2022-10-21T21:44:18.391Z,10.65
2022-10-21T21:46:45.719Z,9.95
2022-10-21T21:49:13.369Z,9.93
2022-10-21T21:51:40.828Z,9.90
2022-10-21T21:54:10.514Z,10.23
2022-10-21T21:56:38.997Z,11.10
2022-10-21T21:59:11.799Z,10.68
2022-10-21T22:01:39.296Z,9.98
2022-10-21T22:04:07.076Z,10.00
2022-10-21T22:06:36.361Z,9.82
2022-10-21T22:09:10.154Z,10.70
2022-10-21T22:11:39.216Z,10.73
2022-10-21T22:14:07.768Z,11.02
2022-10-21T22:16:35.133Z,10.23
2022-10-21T22:19:02.606Z,10.70
2022-10-21T22:21:33.930Z,9.98
2022-10-21T22:24:01.401Z,10.18
2022-10-21T22:26:29.978Z,11.07
2022-10-21T22:28:57.114Z,10.15
2022-10-21T22:31:30.275Z,11.02
2022-10-21T22:34:05.473Z,10.63
2022-10-21T22:36:34.801Z,10.80
2022-10-21T22:39:03.536Z,9.57
2022-10-21T22:41:30.879Z,10.70
2022-10-21T22:43:58.419Z,10.50
2022-10-21T22:46:40.952Z,11.25
2022-10-21T22:49:08.721Z,10.00
2022-10-21T22:51:35.777Z,11.40
2022-10-21T22:54:02.931Z,10.10
2022-10-21T22:56:32.765Z,9.95
2022-10-21T22:59:00.223Z,10.77
2022-10-21T23:01:30.387Z,10.85
2022-10-21T23:04:02.731Z,11.18
2022-10-21T23:06:34.511Z,11.25
2022-10-21T23:09:02.835Z,11.65
2022-10-21T23:11:30.531Z,10.70
2022-10-21T23:14:03.344Z,10.23
2022-10-21T23:16:34.994Z,10.93
2022-10-21T23:19:02.278Z,9.90
2022-10-21T23:21:29.443Z,10.63
2022-10-21T23:23:57.006Z,10.82
2022-10-21T23:26:24.400Z,11.45
2022-10-21T23:28:51.687Z,11.60
2022-10-21T23:31:19.890Z,10.75
2022-10-21T23:33:47.311Z,12.00
2022-10-21T23:36:14.779Z,11.05
2022-10-21T23:38:42.137Z,10.48
2022-10-21T23:41:09.560Z,11.20
2022-10-21T23:43:36.987Z,10.75
2022-10-21T23:46:06.642Z,11.32
2022-10-21T23:48:36.518Z,11.20
2022-10-21T23:53:33.825Z,10.60
2022-10-21T23:56:03.783Z,11.75
2022-10-21T23:58:30.956Z,10.68
